sensor_id;sensor_type;location;lat;lon;timestamp;temperature;humidity
19945;DHT22;10134;50.952;6.930;2023-12-28T00:00:14;10.60;99.90
19945;DHT22;10134;50.952;6.930;2023-12-28T00:02:44;10.70;99.90
19945;DHT22;10134;50.952;6.930;2023-12-28T00:05:13;10.70;99.90
19945;DHT22;10134;50.952;6.930;2023-12-28T00:07:42;10.70;99.90
19945;DHT22;10134;50.952;6.930;2023-12-28T00:10:10;10.70;99.90
19945;DHT22;10134;50.952;6.930;2023-12-28T00:12:39;10.70;99.90
19945;DHT22;10134;50.952;6.930;2023-12-28T00:15:08;10.80;99.90
19945;DHT22;10134;50.952;6.930;2023-12-28T00:17:37;10.80;99.90
19945;DHT22;10134;50.952;6.930;2023-12-28T00:20:08;10.80;99.90
19945;DHT22;10134;50.952;6.930;2023-12-28T00:22:37;10.80;99.90
19945;DHT22;10134;50.952;6.930;2023-12-28T00:25:06;10.80;99.90
19945;DHT22;10134;50.952;6.930;2023-12-28T00:27:35;10.80;99.90
19945;DHT22;10134;50.952;6.930;2023-12-28T00:30:06;10.80;99.90
19945;DHT22;10134;50.952;6.930;2023-12-28T00:32:35;10.80;99.90
19945;DHT22;10134;50.952;6.930;2023-12-28T00:35:04;10.80;99.90
19945;DHT22;10134;50.952;6.930;2023-12-28T00:37:35;10.80;99.90
19945;DHT22;10134;50.952;6.930;2023-12-28T00:40:04;10.80;99.90
19945;DHT22;10134;50.952;6.930;2023-12-28T00:42:33;10.80;99.90
19945;DHT22;10134;50.952;6.930;2023-12-28T00:45:02;10.80;99.90
19945;DHT22;10134;50.952;6.930;2023-12-28T00:47:31;10.80;99.90
19945;DHT22;10134;50.952;6.930;2023-12-28T00:50:00;10.80;99.90
19945;DHT22;10134;50.952;6.930;2023-12-28T00:52:29;10.80;99.90
19945;DHT22;10134;50.952;6.930;2023-12-28T00:54:58;10.80;99.90
19945;DHT22;10134;50.952;6.930;2023-12-28T00:57:27;10.80;99.90
19945;DHT22;10134;50.952;6.930;2023-12-28T00:59:56;10.80;99.90
19945;DHT22;10134;50.952;6.930;2023-12-28T01:02:24;10.80;99.90
19945;DHT22;10134;50.952;6.930;2023-12-28T01:04:53;10.80;99.90
19945;DHT22;10134;50.952;6.930;2023-12-28T01:07:22;10.80;99.90
19945;DHT22;10134;50.952;6.930;2023-12-28T01:09:51;10.80;99.90
19945;DHT22;10134;50.952;6.930;2023-12-28T01:12:21;10.80;99.90
19945;DHT22;10134;50.952;6.930;2023-12-28T01:14:52;10.80;99.90
19945;DHT22;10134;50.952;6.930;2023-12-28T01:17:23;10.80;99.90
19945;DHT22;10134;50.952;6.930;2023-12-28T01:19:52;10.80;99.90
19945;DHT22;10134;50.952;6.930;2023-12-28T01:22:21;10.80;99.90
19945;DHT22;10134;50.952;6.930;2023-12-28T01:24:49;10.80;99.90
19945;DHT22;10134;50.952;6.930;2023-12-28T01:27:18;10.80;99.90
19945;DHT22;10134;50.952;6.930;2023-12-28T01:29:47;10.80;99.90
19945;DHT22;10134;50.952;6.930;2023-12-28T01:32:16;10.80;99.90
19945;DHT22;10134;50.952;6.930;2023-12-28T01:34:45;10.80;99.90
19945;DHT22;10134;50.952;6.930;2023-12-28T01:37:14;10.80;99.90
19945;DHT22;10134;50.952;6.930;2023-12-28T01:39:42;10.80;99.90
19945;DHT22;10134;50.952;6.930;2023-12-28T01:42:11;10.80;99.90
19945;DHT22;10134;50.952;6.930;2023-12-28T01:44:40;10.80;99.90
19945;DHT22;10134;50.952;6.930;2023-12-28T01:47:10;10.80;99.90
19945;DHT22;10134;50.952;6.930;2023-12-28T01:49:39;10.80;99.90
19945;DHT22;10134;50.952;6.930;2023-12-28T01:52:08;10.80;99.90
19945;DHT22;10134;50.952;6.930;2023-12-28T01:54:37;10.80;99.90
19945;DHT22;10134;50.952;6.930;2023-12-28T01:57:07;10.80;99.90
19945;DHT22;10134;50.952;6.930;2023-12-28T01:59:36;10.80;99.90
19945;DHT22;10134;50.952;6.930;2023-12-28T02:02:05;10.80;99.90
19945;DHT22;10134;50.952;6.930;2023-12-28T02:04:36;10.90;99.90
19945;DHT22;10134;50.952;6.930;2023-12-28T02:07:08;10.90;99.90
19945;DHT22;10134;50.952;6.930;2023-12-28T02:09:40;10.90;99.90
19945;DHT22;10134;50.952;6.930;2023-12-28T02:12:09;10.90;99.90
19945;DHT22;10134;50.952;6.930;2023-12-28T02:14:38;10.90;99.90
19945;DHT22;10134;50.952;6.930;2023-12-28T02:17:12;10.90;99.90
19945;DHT22;10134;50.952;6.930;2023-12-28T02:19:49;10.80;99.90
19945;DHT22;10134;50.952;6.930;2023-12-28T02:22:18;10.80;99.90
19945;DHT22;10134;50.952;6.930;2023-12-28T02:25:12;10.80;99.90
19945;DHT22;10134;50.952;6.930;2023-12-28T02:27:42;10.80;99.90
19945;DHT22;10134;50.952;6.930;2023-12-28T02:30:12;10.80;99.90
19945;DHT22;10134;50.952;6.930;2023-12-28T02:32:54;10.80;99.90
19945;DHT22;10134;50.952;6.930;2023-12-28T02:35:25;10.80;99.90
19945;DHT22;10134;50.952;6.930;2023-12-28T02:38:01;10.80;99.90
19945;DHT22;10134;50.952;6.930;2023-12-28T02:40:36;10.80;99.90
19945;DHT22;10134;50.952;6.930;2023-12-28T02:43:06;10.80;99.90
19945;DHT22;10134;50.952;6.930;2023-12-28T02:45:37;10.80;99.90
19945;DHT22;10134;50.952;6.930;2023-12-28T02:48:07;10.80;99.90
19945;DHT22;10134;50.952;6.930;2023-12-28T02:50:39;10.80;99.90
19945;DHT22;10134;50.952;6.930;2023-12-28T02:53:08;10.80;99.90
19945;DHT22;10134;50.952;6.930;2023-12-28T02:55:38;10.80;99.90
19945;DHT22;10134;50.952;6.930;2023-12-28T02:58:07;10.80;99.90
19945;DHT22;10134;50.952;6.930;2023-12-28T03:00:36;10.80;99.90
19945;DHT22;10134;50.952;6.930;2023-12-28T03:03:05;10.80;99.90
19945;DHT22;10134;50.952;6.930;2023-12-28T03:05:34;10.80;99.90
19945;DHT22;10134;50.952;6.930;2023-12-28T03:08:03;10.80;99.90
19945;DHT22;10134;50.952;6.930;2023-12-28T03:10:32;10.80;99.90
19945;DHT22;10134;50.952;6.930;2023-12-28T03:13:02;10.80;99.90
19945;DHT22;10134;50.952;6.930;2023-12-28T03:15:30;10.80;99.90
19945;DHT22;10134;50.952;6.930;2023-12-28T03:17:59;10.80;99.90
19945;DHT22;10134;50.952;6.930;2023-12-28T03:20:29;10.80;99.90
19945;DHT22;10134;50.952;6.930;2023-12-28T03:22:58;10.80;99.90
19945;DHT22;10134;50.952;6.930;2023-12-28T03:25:26;10.80;99.90
19945;DHT22;10134;50.952;6.930;2023-12-28T03:27:55;10.80;99.90
19945;DHT22;10134;50.952;6.930;2023-12-28T03:30:25;10.80;99.90
19945;DHT22;10134;50.952;6.930;2023-12-28T03:32:54;10.80;99.90
19945;DHT22;10134;50.952;6.930;2023-12-28T03:35:23;10.80;99.90
19945;DHT22;10134;50.952;6.930;2023-12-28T03:37:51;10.80;99.90
19945;DHT22;10134;50.952;6.930;2023-12-28T03:40:20;10.80;99.90
19945;DHT22;10134;50.952;6.930;2023-12-28T03:42:49;10.80;99.90
19945;DHT22;10134;50.952;6.930;2023-12-28T03:45:17;10.80;99.90
19945;DHT22;10134;50.952;6.930;2023-12-28T03:47:48;10.80;99.90
19945;DHT22;10134;50.952;6.930;2023-12-28T03:50:18;10.80;99.90
19945;DHT22;10134;50.952;6.930;2023-12-28T03:52:47;10.80;99.90
19945;DHT22;10134;50.952;6.930;2023-12-28T03:55:15;10.80;99.90
19945;DHT22;10134;50.952;6.930;2023-12-28T03:57:44;10.80;99.90
19945;DHT22;10134;50.952;6.930;2023-12-28T04:00:14;10.80;99.90
19945;DHT22;10134;50.952;6.930;2023-12-28T04:02:44;10.80;99.90
19945;DHT22;10134;50.952;6.930;2023-12-28T04:05:15;10.80;99.90
19945;DHT22;10134;50.952;6.930;2023-12-28T04:07:44;10.80;99.90
19945;DHT22;10134;50.952;6.930;2023-12-28T04:10:12;10.70;99.90
19945;DHT22;10134;50.952;6.930;2023-12-28T04:12:41;10.70;99.90
19945;DHT22;10134;50.952;6.930;2023-12-28T04:15:10;10.70;99.90
19945;DHT22;10134;50.952;6.930;2023-12-28T04:17:39;10.70;99.90
19945;DHT22;10134;50.952;6.930;2023-12-28T04:20:09;10.70;99.90
19945;DHT22;10134;50.952;6.930;2023-12-28T04:22:39;10.70;99.90
19945;DHT22;10134;50.952;6.930;2023-12-28T04:25:08;10.70;99.90
19945;DHT22;10134;50.952;6.930;2023-12-28T04:27:37;10.70;99.90
19945;DHT22;10134;50.952;6.930;2023-12-28T04:30:07;10.70;99.90
19945;DHT22;10134;50.952;6.930;2023-12-28T04:32:36;10.70;99.90
19945;DHT22;10134;50.952;6.930;2023-12-28T04:35:06;10.70;99.90
19945;DHT22;10134;50.952;6.930;2023-12-28T04:37:34;10.70;99.90
19945;DHT22;10134;50.952;6.930;2023-12-28T04:40:06;10.60;99.90
19945;DHT22;10134;50.952;6.930;2023-12-28T04:42:35;10.60;99.90
19945;DHT22;10134;50.952;6.930;2023-12-28T04:45:05;10.60;99.90
19945;DHT22;10134;50.952;6.930;2023-12-28T04:47:34;10.60;99.90
19945;DHT22;10134;50.952;6.930;2023-12-28T04:50:03;10.60;99.90
19945;DHT22;10134;50.952;6.930;2023-12-28T04:52:32;10.60;99.90
19945;DHT22;10134;50.952;6.930;2023-12-28T04:55:01;10.60;99.90
19945;DHT22;10134;50.952;6.930;2023-12-28T04:57:31;10.60;99.90
19945;DHT22;10134;50.952;6.930;2023-12-28T05:00:00;10.60;99.90
19945;DHT22;10134;50.952;6.930;2023-12-28T05:02:29;10.60;99.90
19945;DHT22;10134;50.952;6.930;2023-12-28T05:05:00;10.60;99.90
19945;DHT22;10134;50.952;6.930;2023-12-28T05:07:29;10.60;99.90
19945;DHT22;10134;50.952;6.930;2023-12-28T05:09:57;10.60;99.90
19945;DHT22;10134;50.952;6.930;2023-12-28T05:12:27;10.60;99.90
19945;DHT22;10134;50.952;6.930;2023-12-28T05:15:11;10.60;99.90
19945;DHT22;10134;50.952;6.930;2023-12-28T05:17:40;10.60;99.90
19945;DHT22;10134;50.952;6.930;2023-12-28T05:20:09;10.60;99.90
19945;DHT22;10134;50.952;6.930;2023-12-28T05:22:38;10.60;99.90
19945;DHT22;10134;50.952;6.930;2023-12-28T05:25:07;10.60;99.90
19945;DHT22;10134;50.952;6.930;2023-12-28T05:27:36;10.60;99.90
19945;DHT22;10134;50.952;6.930;2023-12-28T05:30:06;10.60;99.90
19945;DHT22;10134;50.952;6.930;2023-12-28T05:32:36;10.60;99.90
19945;DHT22;10134;50.952;6.930;2023-12-28T05:35:06;10.60;99.90
19945;DHT22;10134;50.952;6.930;2023-12-28T05:37:35;10.50;99.90
19945;DHT22;10134;50.952;6.930;2023-12-28T05:40:04;10.50;99.90
19945;DHT22;10134;50.952;6.930;2023-12-28T05:42:34;10.50;99.90
19945;DHT22;10134;50.952;6.930;2023-12-28T05:45:03;10.50;99.90
19945;DHT22;10134;50.952;6.930;2023-12-28T05:47:31;10.50;99.90
19945;DHT22;10134;50.952;6.930;2023-12-28T05:50:02;10.50;99.90
19945;DHT22;10134;50.952;6.930;2023-12-28T05:52:33;10.50;99.90
19945;DHT22;10134;50.952;6.930;2023-12-28T05:55:05;10.50;99.90
19945;DHT22;10134;50.952;6.930;2023-12-28T05:57:34;10.50;99.90
19945;DHT22;10134;50.952;6.930;2023-12-28T06:00:03;10.50;99.90
19945;DHT22;10134;50.952;6.930;2023-12-28T06:02:38;10.50;99.90
19945;DHT22;10134;50.952;6.930;2023-12-28T06:05:09;10.40;99.90
19945;DHT22;10134;50.952;6.930;2023-12-28T06:07:38;10.40;99.90
19945;DHT22;10134;50.952;6.930;2023-12-28T06:10:09;10.40;99.90
19945;DHT22;10134;50.952;6.930;2023-12-28T06:12:38;10.40;99.90
19945;DHT22;10134;50.952;6.930;2023-12-28T06:15:07;10.40;99.90
19945;DHT22;10134;50.952;6.930;2023-12-28T06:17:39;10.40;99.90
19945;DHT22;10134;50.952;6.930;2023-12-28T06:20:10;10.40;99.90
19945;DHT22;10134;50.952;6.930;2023-12-28T06:22:39;10.40;99.90
19945;DHT22;10134;50.952;6.930;2023-12-28T06:25:11;10.40;99.90
19945;DHT22;10134;50.952;6.930;2023-12-28T06:27:39;10.40;99.90
19945;DHT22;10134;50.952;6.930;2023-12-28T06:30:09;10.40;99.90
19945;DHT22;10134;50.952;6.930;2023-12-28T06:32:38;10.40;99.90
19945;DHT22;10134;50.952;6.930;2023-12-28T06:35:07;10.40;99.90
19945;DHT22;10134;50.952;6.930;2023-12-28T06:37:37;10.40;99.90
19945;DHT22;10134;50.952;6.930;2023-12-28T06:40:07;10.50;99.90
19945;DHT22;10134;50.952;6.930;2023-12-28T06:42:38;10.40;99.90
19945;DHT22;10134;50.952;6.930;2023-12-28T06:45:10;10.50;99.90
19945;DHT22;10134;50.952;6.930;2023-12-28T06:47:39;10.50;99.90
19945;DHT22;10134;50.952;6.930;2023-12-28T06:50:08;10.50;99.90
19945;DHT22;10134;50.952;6.930;2023-12-28T06:52:39;10.50;99.90
19945;DHT22;10134;50.952;6.930;2023-12-28T06:55:08;10.50;99.90
19945;DHT22;10134;50.952;6.930;2023-12-28T06:57:36;10.50;99.90
19945;DHT22;10134;50.952;6.930;2023-12-28T07:00:15;10.50;99.90
19945;DHT22;10134;50.952;6.930;2023-12-28T07:02:45;10.50;99.90
19945;DHT22;10134;50.952;6.930;2023-12-28T07:05:14;10.50;99.90
19945;DHT22;10134;50.952;6.930;2023-12-28T07:07:44;10.50;99.90
19945;DHT22;10134;50.952;6.930;2023-12-28T07:10:13;10.50;99.90
19945;DHT22;10134;50.952;6.930;2023-12-28T07:12:42;10.50;99.90
19945;DHT22;10134;50.952;6.930;2023-12-28T07:15:11;10.50;99.90
19945;DHT22;10134;50.952;6.930;2023-12-28T07:17:42;10.50;99.90
19945;DHT22;10134;50.952;6.930;2023-12-28T07:20:11;10.50;99.90
19945;DHT22;10134;50.952;6.930;2023-12-28T07:22:40;10.50;99.90
19945;DHT22;10134;50.952;6.930;2023-12-28T07:25:10;10.50;99.90
19945;DHT22;10134;50.952;6.930;2023-12-28T07:27:41;10.60;99.90
19945;DHT22;10134;50.952;6.930;2023-12-28T07:30:10;10.60;99.90
19945;DHT22;10134;50.952;6.930;2023-12-28T07:32:44;10.60;99.90
19945;DHT22;10134;50.952;6.930;2023-12-28T07:35:13;10.60;99.90
19945;DHT22;10134;50.952;6.930;2023-12-28T07:37:42;10.60;99.90
19945;DHT22;10134;50.952;6.930;2023-12-28T07:40:14;10.60;99.90
19945;DHT22;10134;50.952;6.930;2023-12-28T07:42:43;10.60;99.90
19945;DHT22;10134;50.952;6.930;2023-12-28T07:45:11;10.60;99.90
19945;DHT22;10134;50.952;6.930;2023-12-28T07:47:40;10.60;99.90
19945;DHT22;10134;50.952;6.930;2023-12-28T07:50:10;10.60;99.90
19945;DHT22;10134;50.952;6.930;2023-12-28T07:52:39;10.60;99.90
19945;DHT22;10134;50.952;6.930;2023-12-28T07:55:08;10.60;99.90
19945;DHT22;10134;50.952;6.930;2023-12-28T07:57:39;10.60;99.90
19945;DHT22;10134;50.952;6.930;2023-12-28T08:00:12;10.60;99.90
19945;DHT22;10134;50.952;6.930;2023-12-28T08:05:16;10.60;99.90
19945;DHT22;10134;50.952;6.930;2023-12-28T08:07:46;10.60;99.90
19945;DHT22;10134;50.952;6.930;2023-12-28T08:10:16;10.70;99.90
19945;DHT22;10134;50.952;6.930;2023-12-28T08:12:54;10.70;99.90
19945;DHT22;10134;50.952;6.930;2023-12-28T08:15:24;10.70;99.90
19945;DHT22;10134;50.952;6.930;2023-12-28T08:17:52;10.70;99.90
19945;DHT22;10134;50.952;6.930;2023-12-28T08:20:25;10.70;99.90
19945;DHT22;10134;50.952;6.930;2023-12-28T08:22:55;10.70;99.90
19945;DHT22;10134;50.952;6.930;2023-12-28T08:25:41;10.70;99.90
19945;DHT22;10134;50.952;6.930;2023-12-28T08:28:13;10.70;99.90
19945;DHT22;10134;50.952;6.930;2023-12-28T08:30:42;10.70;99.90
19945;DHT22;10134;50.952;6.930;2023-12-28T08:33:13;10.70;99.90
19945;DHT22;10134;50.952;6.930;2023-12-28T08:35:44;10.70;99.90
19945;DHT22;10134;50.952;6.930;2023-12-28T08:38:13;10.70;99.90
19945;DHT22;10134;50.952;6.930;2023-12-28T08:40:42;10.70;99.90
19945;DHT22;10134;50.952;6.930;2023-12-28T08:43:11;10.70;99.90
19945;DHT22;10134;50.952;6.930;2023-12-28T08:45:40;10.70;99.90
19945;DHT22;10134;50.952;6.930;2023-12-28T08:48:09;10.70;99.90
19945;DHT22;10134;50.952;6.930;2023-12-28T08:50:38;10.70;99.90
19945;DHT22;10134;50.952;6.930;2023-12-28T08:53:08;10.70;99.90
19945;DHT22;10134;50.952;6.930;2023-12-28T08:55:36;10.70;99.90
19945;DHT22;10134;50.952;6.930;2023-12-28T08:58:08;10.70;99.90
19945;DHT22;10134;50.952;6.930;2023-12-28T09:00:36;10.70;99.90
19945;DHT22;10134;50.952;6.930;2023-12-28T09:03:05;10.70;99.90
19945;DHT22;10134;50.952;6.930;2023-12-28T09:05:34;10.70;99.90
19945;DHT22;10134;50.952;6.930;2023-12-28T09:08:04;10.70;99.90
19945;DHT22;10134;50.952;6.930;2023-12-28T09:10:34;10.70;99.90
19945;DHT22;10134;50.952;6.930;2023-12-28T09:13:16;10.80;99.90
19945;DHT22;10134;50.952;6.930;2023-12-28T09:15:45;10.70;99.90
19945;DHT22;10134;50.952;6.930;2023-12-28T09:18:14;10.80;99.90
19945;DHT22;10134;50.952;6.930;2023-12-28T09:20:43;10.80;99.90
19945;DHT22;10134;50.952;6.930;2023-12-28T09:23:17;10.80;99.90
19945;DHT22;10134;50.952;6.930;2023-12-28T09:25:47;10.80;99.90
19945;DHT22;10134;50.952;6.930;2023-12-28T09:28:16;10.80;99.90
19945;DHT22;10134;50.952;6.930;2023-12-28T09:30:45;10.80;99.90
19945;DHT22;10134;50.952;6.930;2023-12-28T09:33:14;10.80;99.90
19945;DHT22;10134;50.952;6.930;2023-12-28T09:35:43;10.90;99.90
19945;DHT22;10134;50.952;6.930;2023-12-28T09:38:15;10.90;99.90
19945;DHT22;10134;50.952;6.930;2023-12-28T09:40:44;10.90;99.90
19945;DHT22;10134;50.952;6.930;2023-12-28T09:43:23;10.90;99.90
19945;DHT22;10134;50.952;6.930;2023-12-28T09:45:53;10.90;99.90
19945;DHT22;10134;50.952;6.930;2023-12-28T09:48:22;10.90;99.90
19945;DHT22;10134;50.952;6.930;2023-12-28T09:50:53;11.00;99.90
19945;DHT22;10134;50.952;6.930;2023-12-28T09:53:26;11.00;99.90
19945;DHT22;10134;50.952;6.930;2023-12-28T09:55:58;11.00;99.90
19945;DHT22;10134;50.952;6.930;2023-12-28T09:58:35;11.00;99.90
19945;DHT22;10134;50.952;6.930;2023-12-28T10:01:09;11.10;99.90
19945;DHT22;10134;50.952;6.930;2023-12-28T10:03:39;11.10;99.90
19945;DHT22;10134;50.952;6.930;2023-12-28T10:06:07;11.10;99.90
19945;DHT22;10134;50.952;6.930;2023-12-28T10:08:47;11.10;99.90
19945;DHT22;10134;50.952;6.930;2023-12-28T10:11:20;11.20;99.90
19945;DHT22;10134;50.952;6.930;2023-12-28T10:13:55;11.20;99.90
19945;DHT22;10134;50.952;6.930;2023-12-28T10:16:26;11.20;99.90
19945;DHT22;10134;50.952;6.930;2023-12-28T10:18:56;11.20;99.90
19945;DHT22;10134;50.952;6.930;2023-12-28T10:21:25;11.30;99.90
19945;DHT22;10134;50.952;6.930;2023-12-28T10:23:57;11.30;99.90
19945;DHT22;10134;50.952;6.930;2023-12-28T10:26:25;11.30;99.90
19945;DHT22;10134;50.952;6.930;2023-12-28T10:28:59;11.30;99.90
19945;DHT22;10134;50.952;6.930;2023-12-28T10:31:28;11.40;99.90
19945;DHT22;10134;50.952;6.930;2023-12-28T10:33:58;11.40;99.90
19945;DHT22;10134;50.952;6.930;2023-12-28T10:36:30;11.40;99.90
19945;DHT22;10134;50.952;6.930;2023-12-28T10:39:00;11.50;99.90
19945;DHT22;10134;50.952;6.930;2023-12-28T10:41:34;11.60;99.90
19945;DHT22;10134;50.952;6.930;2023-12-28T10:44:06;11.60;99.90
19945;DHT22;10134;50.952;6.930;2023-12-28T10:46:40;11.70;99.90
19945;DHT22;10134;50.952;6.930;2023-12-28T10:49:30;11.70;99.90
19945;DHT22;10134;50.952;6.930;2023-12-28T10:52:06;11.80;99.90
19945;DHT22;10134;50.952;6.930;2023-12-28T10:54:41;11.80;99.90
19945;DHT22;10134;50.952;6.930;2023-12-28T10:57:20;11.80;99.90
19945;DHT22;10134;50.952;6.930;2023-12-28T11:00:00;11.90;99.90
19945;DHT22;10134;50.952;6.930;2023-12-28T11:02:38;11.90;99.90
19945;DHT22;10134;50.952;6.930;2023-12-28T11:05:08;12.00;99.90
19945;DHT22;10134;50.952;6.930;2023-12-28T11:07:38;12.00;99.90
19945;DHT22;10134;50.952;6.930;2023-12-28T11:10:09;12.00;99.90
19945;DHT22;10134;50.952;6.930;2023-12-28T11:12:38;12.00;99.90
19945;DHT22;10134;50.952;6.930;2023-12-28T11:15:09;12.10;99.90
19945;DHT22;10134;50.952;6.930;2023-12-28T11:17:39;12.10;99.90
19945;DHT22;10134;50.952;6.930;2023-12-28T11:20:11;12.20;99.90
19945;DHT22;10134;50.952;6.930;2023-12-28T11:22:40;12.20;99.90
19945;DHT22;10134;50.952;6.930;2023-12-28T11:25:15;12.20;99.90
19945;DHT22;10134;50.952;6.930;2023-12-28T11:27:43;12.20;99.90
19945;DHT22;10134;50.952;6.930;2023-12-28T11:30:15;12.30;99.90
19945;DHT22;10134;50.952;6.930;2023-12-28T11:32:44;12.30;99.90
19945;DHT22;10134;50.952;6.930;2023-12-28T11:35:13;12.30;99.90
19945;DHT22;10134;50.952;6.930;2023-12-28T11:37:48;12.40;99.90
19945;DHT22;10134;50.952;6.930;2023-12-28T11:40:19;12.40;99.90
19945;DHT22;10134;50.952;6.930;2023-12-28T11:42:53;12.40;99.90
19945;DHT22;10134;50.952;6.930;2023-12-28T11:45:25;12.50;99.90
19945;DHT22;10134;50.952;6.930;2023-12-28T11:48:00;12.50;99.90
19945;DHT22;10134;50.952;6.930;2023-12-28T11:50:29;12.50;99.90
19945;DHT22;10134;50.952;6.930;2023-12-28T11:52:58;12.60;99.90
19945;DHT22;10134;50.952;6.930;2023-12-28T11:55:27;12.60;99.90
19945;DHT22;10134;50.952;6.930;2023-12-28T11:57:56;12.60;99.90
19945;DHT22;10134;50.952;6.930;2023-12-28T12:00:27;12.70;99.90
19945;DHT22;10134;50.952;6.930;2023-12-28T12:02:56;12.70;99.90
19945;DHT22;10134;50.952;6.930;2023-12-28T12:05:26;12.80;99.90
19945;DHT22;10134;50.952;6.930;2023-12-28T12:07:55;12.80;99.90
19945;DHT22;10134;50.952;6.930;2023-12-28T12:10:25;12.80;99.90
19945;DHT22;10134;50.952;6.930;2023-12-28T12:12:54;12.90;99.90
19945;DHT22;10134;50.952;6.930;2023-12-28T12:15:25;12.90;99.90
19945;DHT22;10134;50.952;6.930;2023-12-28T12:17:58;12.90;99.90
19945;DHT22;10134;50.952;6.930;2023-12-28T12:20:28;13.00;99.90
19945;DHT22;10134;50.952;6.930;2023-12-28T12:22:58;13.00;99.90
19945;DHT22;10134;50.952;6.930;2023-12-28T12:25:29;13.00;99.90
19945;DHT22;10134;50.952;6.930;2023-12-28T12:27:57;13.00;99.90
19945;DHT22;10134;50.952;6.930;2023-12-28T12:30:26;13.10;99.90
19945;DHT22;10134;50.952;6.930;2023-12-28T12:32:55;13.10;99.90
19945;DHT22;10134;50.952;6.930;2023-12-28T12:35:27;13.10;99.90
19945;DHT22;10134;50.952;6.930;2023-12-28T12:37:57;13.10;99.90
19945;DHT22;10134;50.952;6.930;2023-12-28T12:40:26;13.10;99.90
19945;DHT22;10134;50.952;6.930;2023-12-28T12:42:55;13.20;99.90
19945;DHT22;10134;50.952;6.930;2023-12-28T12:45:25;13.20;99.90
19945;DHT22;10134;50.952;6.930;2023-12-28T12:47:54;13.20;99.90
19945;DHT22;10134;50.952;6.930;2023-12-28T12:50:23;13.20;99.90
19945;DHT22;10134;50.952;6.930;2023-12-28T12:52:53;13.20;99.90
19945;DHT22;10134;50.952;6.930;2023-12-28T12:55:22;13.30;99.90
19945;DHT22;10134;50.952;6.930;2023-12-28T12:57:53;13.30;99.90
19945;DHT22;10134;50.952;6.930;2023-12-28T13:00:23;13.30;99.90
19945;DHT22;10134;50.952;6.930;2023-12-28T13:02:53;13.30;99.90
19945;DHT22;10134;50.952;6.930;2023-12-28T13:05:24;13.30;99.90
19945;DHT22;10134;50.952;6.930;2023-12-28T13:07:57;13.30;99.90
19945;DHT22;10134;50.952;6.930;2023-12-28T13:10:28;13.30;99.90
19945;DHT22;10134;50.952;6.930;2023-12-28T13:12:57;13.40;99.90
19945;DHT22;10134;50.952;6.930;2023-12-28T13:15:26;13.30;99.90
19945;DHT22;10134;50.952;6.930;2023-12-28T13:17:55;13.30;99.90
19945;DHT22;10134;50.952;6.930;2023-12-28T13:20:24;13.30;99.90
19945;DHT22;10134;50.952;6.930;2023-12-28T13:22:53;13.30;99.90
19945;DHT22;10134;50.952;6.930;2023-12-28T13:25:23;13.30;99.90
19945;DHT22;10134;50.952;6.930;2023-12-28T13:27:51;13.30;99.90
19945;DHT22;10134;50.952;6.930;2023-12-28T13:30:20;13.30;99.90
19945;DHT22;10134;50.952;6.930;2023-12-28T13:32:49;13.30;99.90
19945;DHT22;10134;50.952;6.930;2023-12-28T13:35:23;13.40;99.90
19945;DHT22;10134;50.952;6.930;2023-12-28T13:37:51;13.30;99.90
19945;DHT22;10134;50.952;6.930;2023-12-28T13:40:20;13.30;99.90
19945;DHT22;10134;50.952;6.930;2023-12-28T13:42:50;13.30;99.90
19945;DHT22;10134;50.952;6.930;2023-12-28T13:45:19;13.30;99.90
19945;DHT22;10134;50.952;6.930;2023-12-28T13:47:48;13.30;99.90
19945;DHT22;10134;50.952;6.930;2023-12-28T13:50:17;13.30;99.90
19945;DHT22;10134;50.952;6.930;2023-12-28T13:52:47;13.20;99.90
19945;DHT22;10134;50.952;6.930;2023-12-28T13:55:16;13.20;99.90
19945;DHT22;10134;50.952;6.930;2023-12-28T13:57:45;13.20;99.90
19945;DHT22;10134;50.952;6.930;2023-12-28T14:00:18;13.20;99.90
19945;DHT22;10134;50.952;6.930;2023-12-28T14:02:49;13.20;99.90
19945;DHT22;10134;50.952;6.930;2023-12-28T14:05:20;13.20;99.90
19945;DHT22;10134;50.952;6.930;2023-12-28T14:07:54;13.20;99.90
19945;DHT22;10134;50.952;6.930;2023-12-28T14:10:26;13.10;99.90
19945;DHT22;10134;50.952;6.930;2023-12-28T14:12:55;13.10;99.90
19945;DHT22;10134;50.952;6.930;2023-12-28T14:15:25;13.10;99.90
19945;DHT22;10134;50.952;6.930;2023-12-28T14:17:54;13.10;99.90
19945;DHT22;10134;50.952;6.930;2023-12-28T14:20:23;13.10;99.90
19945;DHT22;10134;50.952;6.930;2023-12-28T14:22:52;13.00;99.90
19945;DHT22;10134;50.952;6.930;2023-12-28T14:25:21;13.00;99.90
19945;DHT22;10134;50.952;6.930;2023-12-28T14:27:51;13.00;99.90
19945;DHT22;10134;50.952;6.930;2023-12-28T14:30:20;13.00;99.90
19945;DHT22;10134;50.952;6.930;2023-12-28T14:32:53;13.00;99.90
19945;DHT22;10134;50.952;6.930;2023-12-28T14:35:26;12.90;99.90
19945;DHT22;10134;50.952;6.930;2023-12-28T14:37:55;12.90;99.90
19945;DHT22;10134;50.952;6.930;2023-12-28T14:40:24;12.90;99.90
19945;DHT22;10134;50.952;6.930;2023-12-28T14:42:53;12.90;99.90
19945;DHT22;10134;50.952;6.930;2023-12-28T14:45:22;12.90;99.90
19945;DHT22;10134;50.952;6.930;2023-12-28T14:47:52;12.80;99.90
19945;DHT22;10134;50.952;6.930;2023-12-28T14:50:21;12.80;99.90
19945;DHT22;10134;50.952;6.930;2023-12-28T14:52:49;12.80;99.90
19945;DHT22;10134;50.952;6.930;2023-12-28T14:55:18;12.80;99.90
19945;DHT22;10134;50.952;6.930;2023-12-28T14:57:46;12.80;99.90
19945;DHT22;10134;50.952;6.930;2023-12-28T15:00:16;12.70;99.90
19945;DHT22;10134;50.952;6.930;2023-12-28T15:02:45;12.70;99.90
19945;DHT22;10134;50.952;6.930;2023-12-28T15:05:15;12.70;99.90
19945;DHT22;10134;50.952;6.930;2023-12-28T15:07:44;12.70;99.90
19945;DHT22;10134;50.952;6.930;2023-12-28T15:10:14;12.70;99.90
19945;DHT22;10134;50.952;6.930;2023-12-28T15:12:43;12.60;99.90
19945;DHT22;10134;50.952;6.930;2023-12-28T15:15:13;12.70;99.90
19945;DHT22;10134;50.952;6.930;2023-12-28T15:17:42;12.60;99.90
19945;DHT22;10134;50.952;6.930;2023-12-28T15:20:12;12.60;99.90
19945;DHT22;10134;50.952;6.930;2023-12-28T15:22:43;12.60;99.90
19945;DHT22;10134;50.952;6.930;2023-12-28T15:25:12;12.50;99.90
19945;DHT22;10134;50.952;6.930;2023-12-28T15:27:41;12.50;99.90
19945;DHT22;10134;50.952;6.930;2023-12-28T15:30:12;12.50;99.90
19945;DHT22;10134;50.952;6.930;2023-12-28T15:32:41;12.50;99.90
19945;DHT22;10134;50.952;6.930;2023-12-28T15:35:12;12.50;99.90
19945;DHT22;10134;50.952;6.930;2023-12-28T15:37:43;12.40;99.90
19945;DHT22;10134;50.952;6.930;2023-12-28T15:40:12;12.40;99.90
19945;DHT22;10134;50.952;6.930;2023-12-28T15:42:40;12.40;99.90
19945;DHT22;10134;50.952;6.930;2023-12-28T15:45:10;12.40;99.90
19945;DHT22;10134;50.952;6.930;2023-12-28T15:47:39;12.40;99.90
19945;DHT22;10134;50.952;6.930;2023-12-28T15:50:08;12.40;99.90